Brazos — V7UU4 — position and weather

sailwx.info

Track history (hours):
 
Tides and Currents Weather Stations Pressure Air Temp Water Temp Dewpoint Dewpoint Depression Visibility Wind Speed Wind Dir Waves Ship Positions

Brazos

Last reported at 2017-Nov-20 00:28 UTC. Time now 2017-Nov-22 15:07 UTC.
Position N 33°41' W 118°08'.

Length 274 m; draft 17 m.

Type: Tanker. MMSI: 538004031.

Date/timePositionNaut miles runAvg speedWind from/ knotsBaromVisibWave heightAir tempDewpointWater temp
2017-Nov-20 00:28N 33°41' W 118°08'0 0.1
2017-Nov-19 23:58N 33°41' W 118°08'0 0.0
2017-Nov-19 19:37N 33°41' W 118°08'0 0.1
2017-Nov-19 17:37N 33°41' W 118°08'0 0.1
2017-Nov-19 17:15N 33°41' W 118°08'0 0.2
2017-Nov-19 17:01N 33°41' W 118°08'0 0.1
2017-Nov-19 16:04N 33°41' W 118°08'0 0.1
2017-Nov-19 15:59N 33°41' W 118°08'0 0.0
2017-Nov-19 15:31N 33°41' W 118°08'0 0.0
2017-Nov-19 15:00N 33°41' W 118°08'0 0.0
2017-Nov-19 14:18N 33°41' W 118°08'0 0.2
2017-Nov-19 14:00N 33°41' W 118°08'0 0.0
2017-Nov-19 13:30N 33°41' W 118°08'0 0.0
2017-Nov-19 13:00N 33°41' W 118°08'0 0.0
2017-Nov-19 12:31N 33°41' W 118°08'0 0.1
2017-Nov-19 12:01N 33°41' W 118°08'0 0.0
2017-Nov-19 11:30N 33°41' W 118°08'0 0.0
2017-Nov-19 11:00N 33°41' W 118°08'0 0.0
2017-Nov-19 10:30N 33°41' W 118°08'0 0.1
2017-Nov-19 10:00N 33°41' W 118°08'0 0.0
2017-Nov-19 09:31N 33°41' W 118°08'0 0.0
2017-Nov-19 09:01N 33°41' W 118°08'0 0.0
2017-Nov-19 08:30N 33°41' W 118°08'0 0.0
2017-Nov-19 08:00N 33°41' W 118°08'0 0.2
2017-Nov-19 07:30N 33°41' W 118°08'2 4.9
2017-Nov-19 07:00N 33°39' W 118°10'610.5
2017-Nov-19 06:27N 33°33' W 118°09'511.9
2017-Nov-19 06:01N 33°28' W 118°07'711.8
2017-Nov-19 05:27N 33°22' W 118°04'611.9
2017-Nov-19 05:00N 33°17' W 118°02'611.9
2017-Nov-19 04:31N 33°12' W 117°59'611.9
2017-Nov-19 04:00N 33°07' W 117°56'510.6
2017-Nov-19 03:31N 33°02' W 117°53'3 5.2
2017-Nov-19 03:01N 32°59' W 117°52'5 9.4
2017-Nov-19 02:30N 32°55' W 117°50'612.2
2017-Nov-19 02:00N 32°50' W 117°47'612.0
2017-Nov-19 01:30N 32°44' W 117°43'611.9
2017-Nov-19 01:00N 32°39' W 117°41'611.8
2017-Nov-19 00:30N 32°33' W 117°39'612.0
2017-Nov-19 00:00N 32°27' W 117°38'612.1
2017-Nov-18 23:30N 32°21' W 117°37'713.0
2017-Nov-18 23:00N 32°15' W 117°35'713.5
2017-Nov-18 22:31N 32°08' W 117°34'713.7
2017-Nov-18 22:00N 32°01' W 117°33'713.6
2017-Nov-18 21:30N 31°54' W 117°32'612.9
2017-Nov-18 21:00N 31°48' W 117°31'611.5
2017-Nov-18 20:28N 31°42' W 117°31'4 8.0
2017-Nov-18 19:59N 31°38' W 117°30'611.7
2017-Nov-18 19:31N 31°32' W 117°29'3 5.9
2017-Nov-18 18:59N 31°29' W 117°28'4 8.4
2017-Nov-18 18:27N 31°25' W 117°28'5512.1
2017-Nov-18 13:55N 30°31' W 117°18'  
2017-Nov-15 03:00N 18°00' W 106°54'   300 / 101009.0 5.4 29.023.526.0
2017-Nov-12 18:00N 12°24' W 095°00'10517.5 050 / 241010.027.0 32.022.3
2017-Nov-12 12:00N 11°12' W 093°42'0 0.0 350 / 131008.0 30.027.4
2017-Nov-12 06:00N 11°12' W 093°42'37712.6 350 / 131008.0 30.027.4
2017-Nov-11 00:00N 08°24' W 088°00'   020 / 91010.0 5.4 28.025.329.0
Track history (hours):
 
Tides and Currents Weather Stations Pressure Air Temp Water Temp Dewpoint Dewpoint Depression Visibility Wind Speed Wind Dir Waves Ship Positions

Brazos

Last reported at 2017-Nov-20 00:28 UTC. Time now 2017-Nov-22 15:07 UTC.
Position N 33°41' W 118°08'.

Length 274 m; draft 17 m.

Type: Tanker. MMSI: 538004031.

Date/timePositionNaut miles runAvg speedWind from/ knotsBaromVisibWave heightAir tempDewpointWater temp
2017-Nov-20 00:28N 33°41' W 118°08'0 0.1
2017-Nov-19 23:58N 33°41' W 118°08'0 0.0
2017-Nov-19 19:37N 33°41' W 118°08'0 0.1
2017-Nov-19 17:37N 33°41' W 118°08'0 0.1
2017-Nov-19 17:15N 33°41' W 118°08'0 0.2
2017-Nov-19 17:01N 33°41' W 118°08'0 0.1
2017-Nov-19 16:04N 33°41' W 118°08'0 0.1
2017-Nov-19 15:59N 33°41' W 118°08'0 0.0
2017-Nov-19 15:31N 33°41' W 118°08'0 0.0
2017-Nov-19 15:00N 33°41' W 118°08'0 0.0
2017-Nov-19 14:18N 33°41' W 118°08'0 0.2
2017-Nov-19 14:00N 33°41' W 118°08'0 0.0
2017-Nov-19 13:30N 33°41' W 118°08'0 0.0
2017-Nov-19 13:00N 33°41' W 118°08'0 0.0
2017-Nov-19 12:31N 33°41' W 118°08'0 0.1
2017-Nov-19 12:01N 33°41' W 118°08'0 0.0
2017-Nov-19 11:30N 33°41' W 118°08'0 0.0
2017-Nov-19 11:00N 33°41' W 118°08'0 0.0
2017-Nov-19 10:30N 33°41' W 118°08'0 0.1
2017-Nov-19 10:00N 33°41' W 118°08'0 0.0
2017-Nov-19 09:31N 33°41' W 118°08'0 0.0
2017-Nov-19 09:01N 33°41' W 118°08'0 0.0
2017-Nov-19 08:30N 33°41' W 118°08'0 0.0
2017-Nov-19 08:00N 33°41' W 118°08'0 0.2
2017-Nov-19 07:30N 33°41' W 118°08'2 4.9
2017-Nov-19 07:00N 33°39' W 118°10'610.5
2017-Nov-19 06:27N 33°33' W 118°09'511.9
2017-Nov-19 06:01N 33°28' W 118°07'711.8
2017-Nov-19 05:27N 33°22' W 118°04'611.9
2017-Nov-19 05:00N 33°17' W 118°02'611.9
2017-Nov-19 04:31N 33°12' W 117°59'611.9
2017-Nov-19 04:00N 33°07' W 117°56'510.6
2017-Nov-19 03:31N 33°02' W 117°53'3 5.2
2017-Nov-19 03:01N 32°59' W 117°52'5 9.4
2017-Nov-19 02:30N 32°55' W 117°50'612.2
2017-Nov-19 02:00N 32°50' W 117°47'612.0
2017-Nov-19 01:30N 32°44' W 117°43'611.9
2017-Nov-19 01:00N 32°39' W 117°41'611.8
2017-Nov-19 00:30N 32°33' W 117°39'612.0
2017-Nov-19 00:00N 32°27' W 117°38'612.1
2017-Nov-18 23:30N 32°21' W 117°37'713.0
2017-Nov-18 23:00N 32°15' W 117°35'713.5
2017-Nov-18 22:31N 32°08' W 117°34'713.7
2017-Nov-18 22:00N 32°01' W 117°33'713.6
2017-Nov-18 21:30N 31°54' W 117°32'612.9
2017-Nov-18 21:00N 31°48' W 117°31'611.5
2017-Nov-18 20:28N 31°42' W 117°31'4 8.0
2017-Nov-18 19:59N 31°38' W 117°30'611.7
2017-Nov-18 19:31N 31°32' W 117°29'3 5.9
2017-Nov-18 18:59N 31°29' W 117°28'4 8.4
2017-Nov-18 18:27N 31°25' W 117°28'5512.1
2017-Nov-18 13:55N 30°31' W 117°18'  
2017-Nov-15 03:00N 18°00' W 106°54'   300 / 101009.0 5.4 29.023.526.0
2017-Nov-12 18:00N 12°24' W 095°00'10517.5 050 / 241010.027.0 32.022.3
2017-Nov-12 12:00N 11°12' W 093°42'0 0.0 350 / 131008.0 30.027.4
2017-Nov-12 06:00N 11°12' W 093°42'37712.6 350 / 131008.0 30.027.4
2017-Nov-11 00:00N 08°24' W 088°00'   020 / 91010.0 5.4 28.025.329.0

Dump ship's entire track history